Time;durP1;ratioP1;P1;durP2;ratioP2;P2;SDS_P1;SDS_P2;PMS_P1;PMS_P2;Temp;Humidity;BMP_temperature;BMP_pressure;BME280_temperature;BME280_humidity;BME280_pressure;Samples;Min_cycle;Max_cycle;Signal;HPM_P1;HPM_P2
2021/09/23 00:03:13;;;;;;;13.85;6.03;;;;;;;12.31;100.00;101910.66;6348133;28;20055;-77
2021/09/23 00:06:14;;;;;;;13.88;6.85;;;;;;;12.27;100.00;101922.28;6348876;28;20051;-76
2021/09/23 00:09:15;;;;;;;16.48;7.18;;;;;;;12.26;100.00;101918.75;6349033;28;20055;-77
2021/09/23 00:12:18;;;;;;;14.07;7.35;;;;;;;12.31;100.00;101905.38;6348913;28;20055;-77
2021/09/23 00:15:20;;;;;;;20.60;8.27;;;;;;;12.34;100.00;101905.28;6348347;28;20491;-77
2021/09/23 00:18:24;;;;;;;22.33;8.63;;;;;;;12.32;100.00;101900.06;6348796;28;20052;-77
2021/09/23 00:21:25;;;;;;;21.45;8.40;;;;;;;12.23;100.00;101896.97;6348487;28;20043;-77
2021/09/23 00:24:27;;;;;;;14.90;7.80;;;;;;;12.11;100.00;101890.41;6348235;28;20040;-77
2021/09/23 00:27:30;;;;;;;15.07;7.45;;;;;;;12.03;100.00;101885.47;6348409;28;20410;-77
2021/09/23 00:30:32;;;;;;;16.20;8.13;;;;;;;11.96;100.00;101880.53;6348465;28;20052;-77
2021/09/23 00:33:33;;;;;;;15.10;6.85;;;;;;;11.93;100.00;101882.34;6348035;28;20445;-77
2021/09/23 00:36:35;;;;;;;18.75;8.23;;;;;;;11.86;100.00;101866.88;6348458;27;20043;-77
2021/09/23 00:39:36;;;;;;;14.38;7.18;;;;;;;11.81;100.00;101880.19;6348439;28;20054;-77
2021/09/23 00:42:41;;;;;;;18.23;8.25;;;;;;;11.74;100.00;101864.69;6343328;28;20410;-76
2021/09/23 00:45:43;;;;;;;17.67;7.53;;;;;;;11.72;100.00;101859.50;6327930;22;20442;-82
2021/09/23 00:48:49;;;;;;;14.50;7.38;;;;;;;11.69;100.00;101862.25;6286816;28;20044;-81
2021/09/23 00:51:51;;;;;;;14.88;7.82;;;;;;;11.66;100.00;101854.47;6290628;28;20060;-82
2021/09/23 00:54:53;;;;;;;17.50;7.40;;;;;;;11.73;100.00;101841.91;6298284;28;20139;-83
2021/09/23 00:57:55;;;;;;;17.25;7.28;;;;;;;11.72;100.00;101827.91;6288930;28;20044;-82
2021/09/23 01:00:56;;;;;;;17.27;6.82;;;;;;;11.75;100.00;101826.91;6298323;28;20059;-82
2021/09/23 01:03:58;;;;;;;15.23;7.28;;;;;;;11.74;100.00;101831.31;6298403;28;20048;-83
2021/09/23 01:06:59;;;;;;;19.40;8.48;;;;;;;11.75;100.00;101826.91;6298031;28;20048;-82
2021/09/23 01:10:02;;;;;;;13.25;7.88;;;;;;;11.78;100.00;101818.88;6292970;28;20049;-82
2021/09/23 01:13:05;;;;;;;16.80;8.88;;;;;;;11.80;100.00;101806.50;6289851;28;20135;-83
2021/09/23 01:16:07;;;;;;;24.63;9.90;;;;;;;11.79;100.00;101810.06;6298435;28;20040;-83
2021/09/23 01:19:08;;;;;;;15.15;8.35;;;;;;;11.77;100.00;101807.50;6299263;28;20064;-83
2021/09/23 01:22:12;;;;;;;23.90;9.30;;;;;;;11.77;100.00;101804.88;6290367;28;20056;-83
2021/09/23 01:25:16;;;;;;;17.55;7.95;;;;;;;11.75;100.00;101801.41;6288436;28;20047;-83
2021/09/23 01:28:17;;;;;;;21.38;9.00;;;;;;;11.72;100.00;101793.66;6296957;28;20044;-83
2021/09/23 01:31:19;;;;;;;21.15;8.95;;;;;;;11.67;100.00;101799.13;6297277;28;20055;-81
2021/09/23 01:34:21;;;;;;;19.13;8.52;;;;;;;11.61;100.00;101803.75;6296889;28;20166;-82
2021/09/23 01:37:23;;;;;;;19.17;9.23;;;;;;;11.61;100.00;101799.34;6297326;28;20048;-83
2021/09/23 01:40:25;;;;;;;19.00;9.73;;;;;;;11.67;100.00;101793.84;6296848;28;20059;-82
2021/09/23 01:43:26;;;;;;;21.95;9.63;;;;;;;11.68;100.00;101782.41;6296904;28;20052;-81
2021/09/23 01:46:28;;;;;;;19.58;9.18;;;;;;;11.67;100.00;101785.97;6296704;28;20049;-82
2021/09/23 01:49:30;;;;;;;23.58;9.68;;;;;;;11.64;100.00;101777.31;6296910;28;20494;-82
2021/09/23 01:52:33;;;;;;;24.02;10.70;;;;;;;11.63;100.00;101787.00;6296941;28;20052;-81
2021/09/23 01:55:35;;;;;;;20.23;9.32;;;;;;;11.65;100.00;101765.88;6296982;28;20044;-82
2021/09/23 01:58:36;;;;;;;21.25;10.48;;;;;;;11.63;100.00;101762.44;6296930;28;20098;-82
2021/09/23 02:01:38;;;;;;;23.55;10.98;;;;;;;11.60;100.00;101746.78;6296499;28;20449;-82
2021/09/23 02:04:39;;;;;;;26.80;10.07;;;;;;;11.57;100.00;101736.34;6296217;28;20044;-81
2021/09/23 02:07:42;;;;;;;20.55;9.68;;;;;;;11.49;100.00;101720.91;6296972;28;20044;-81
2021/09/23 02:10:44;;;;;;;21.95;9.23;;;;;;;11.49;100.00;101715.63;6296884;28;20050;-81
2021/09/23 02:13:45;;;;;;;23.65;10.02;;;;;;;11.48;100.00;101715.69;6296767;28;20106;-83
2021/09/23 02:16:47;;;;;;;20.85;9.05;;;;;;;11.45;100.00;101719.31;6290797;28;20049;-83
2021/09/23 02:19:48;;;;;;;22.65;10.10;;;;;;;11.40;100.00;101721.28;6287992;28;20052;-82
2021/09/23 02:22:52;;;;;;;24.90;10.18;;;;;;;11.40;100.00;101719.50;6284415;28;20052;-82
2021/09/23 02:25:53;;;;;;;21.60;10.52;;;;;;;11.37;100.00;101722.25;6292030;28;20044;-83
2021/09/23 02:28:54;;;;;;;20.52;9.40;;;;;;;11.38;100.00;101715.22;6299129;28;20071;-83
2021/09/23 02:31:56;;;;;;;31.42;11.13;;;;;;;11.37;100.00;101703.81;6293448;28;20040;-83
2021/09/23 02:34:57;;;;;;;21.17;10.50;;;;;;;11.37;100.00;101695.94;6283272;28;20123;-83
2021/09/23 02:38:00;;;;;;;23.45;10.40;;;;;;;11.35;100.00;101684.59;6290193;28;20519;-81
2021/09/23 02:41:01;;;;;;;25.30;10.52;;;;;;;11.32;100.00;101681.25;6291560;28;20411;-81
2021/09/23 02:44:03;;;;;;;24.02;10.52;;;;;;;11.31;100.00;101676.91;6286711;28;20048;-81
2021/09/23 02:47:04;;;;;;;24.58;9.88;;;;;;;11.29;100.00;101671.69;6285233;28;20511;-81
2021/09/23 02:50:07;;;;;;;20.88;9.93;;;;;;;11.30;100.00;101664.66;6288758;28;20052;-80
2021/09/23 02:53:09;;;;;;;16.95;8.93;;;;;;;11.28;100.00;101664.75;6286165;28;20116;-82
2021/09/23 02:56:11;;;;;;;17.88;8.27;;;;;;;11.28;100.00;101667.38;6292601;28;20048;-83
2021/09/23 02:59:12;;;;;;;22.73;9.77;;;;;;;11.30;100.00;101656.75;6294810;28;20059;-81
2021/09/23 03:02:14;;;;;;;18.13;9.75;;;;;;;11.30;100.00;101662.88;6294679;28;20071;-82
2021/09/23 03:05:15;;;;;;;19.00;9.95;;;;;;;11.32;100.00;101657.56;6282485;28;20049;-81
2021/09/23 03:08:18;;;;;;;22.80;10.00;;;;;;;11.35;100.00;101660.91;6285703;28;20056;-82
2021/09/23 03:11:19;;;;;;;25.08;8.90;;;;;;;11.35;100.00;101662.69;6280033;28;20052;-82
2021/09/23 03:14:21;;;;;;;24.27;9.95;;;;;;;11.32;100.00;101660.22;6291720;28;20059;-83
2021/09/23 03:17:22;;;;;;;18.98;8.73;;;;;;;11.33;100.00;101656.66;6278251;28;20045;-82
2021/09/23 03:20:25;;;;;;;19.35;8.55;;;;;;;11.28;100.00;101656.84;6278401;28;20044;-82
2021/09/23 03:23:27;;;;;;;22.77;10.60;;;;;;;11.23;100.00;101650.06;6279898;28;20056;-80
2021/09/23 03:26:29;;;;;;;16.20;8.77;;;;;;;11.20;100.00;101645.78;6286485;28;20037;-81
2021/09/23 03:29:30;;;;;;;20.13;9.38;;;;;;;11.22;100.00;101646.59;6288548;28;20072;-81
2021/09/23 03:32:31;;;;;;;18.92;8.75;;;;;;;11.25;100.00;101642.94;6284403;28;20040;-83
2021/09/23 03:35:33;;;;;;;17.02;9.07;;;;;;;11.26;100.00;101629.72;6288050;28;20048;-82
2021/09/23 03:38:36;;;;;;;20.50;8.32;;;;;;;11.23;100.00;101606.19;6300333;28;20048;-82
2021/09/23 03:41:37;;;;;;;15.85;7.97;;;;;;;11.15;100.00;101611.75;6293358;28;20044;-82
2021/09/23 03:44:38;;;;;;;20.50;8.27;;;;;;;11.11;100.00;101612.81;6297398;28;20067;-83
2021/09/23 03:47:40;;;;;;;19.00;8.07;;;;;;;11.12;100.00;101606.63;6300448;28;20495;-82
2021/09/23 03:50:41;;;;;;;23.77;9.45;;;;;;;11.14;100.00;101609.22;6299899;28;20063;-81
2021/09/23 03:53:44;;;;;;;19.40;9.40;;;;;;;11.14;100.00;101607.44;6299465;28;20049;-82
2021/09/23 03:56:46;;;;;;;16.77;8.55;;;;;;;11.18;100.00;101605.53;6292627;28;20044;-83
2021/09/23 03:59:47;;;;;;;16.23;7.68;;;;;;;11.18;100.00;101611.66;6278579;28;20053;-81
2021/09/23 04:02:49;;;;;;;21.52;9.13;;;;;;;11.13;100.00;101592.56;6283633;28;20484;-82
2021/09/23 04:05:51;;;;;;;23.45;9.60;;;;;;;11.14;100.00;101586.38;6280137;28;20334;-81
2021/09/23 04:08:53;;;;;;;21.40;9.30;;;;;;;11.20;100.00;101587.88;6285377;28;20145;-81
2021/09/23 04:11:54;;;;;;;18.70;9.32;;;;;;;11.19;100.00;101594.09;6288270;28;20041;-81
2021/09/23 04:14:56;;;;;;;21.88;8.88;;;;;;;11.19;100.00;101596.72;6276820;28;20041;-81
2021/09/23 04:17:57;;;;;;;21.20;9.10;;;;;;;11.20;100.00;101595.78;6288590;28;20049;-82
2021/09/23 04:20:59;;;;;;;18.35;8.18;;;;;;;11.21;100.00;101599.25;6279586;28;20055;-80
2021/09/23 04:24:01;;;;;;;15.98;8.38;;;;;;;11.22;100.00;101588.69;6274286;28;20072;-82
2021/09/23 04:27:03;;;;;;;13.98;7.20;;;;;;;11.23;100.00;101579.88;6268975;28;20048;-80
2021/09/23 04:30:05;;;;;;;24.85;9.07;;;;;;;11.16;100.00;101568.75;6274768;28;20056;-82
2021/09/23 04:33:07;;;;;;;29.52;10.45;;;;;;;11.13;100.00;101552.25;6277251;28;20072;-82
2021/09/23 04:36:08;;;;;;;18.17;9.43;;;;;;;11.13;100.00;101561.00;6273262;28;20041;-82
2021/09/23 04:39:12;;;;;;;20.85;9.55;;;;;;;11.08;100.00;101562.09;6283274;28;20048;-82
2021/09/23 04:42:13;;;;;;;18.10;8.75;;;;;;;11.11;100.00;101562.81;6299060;28;20443;-82
2021/09/23 04:45:15;;;;;;;22.10;11.07;;;;;;;11.10;100.00;101555.88;6298454;28;20052;-82
2021/09/23 04:48:16;;;;;;;22.40;9.82;;;;;;;11.08;100.00;101549.81;6285056;28;20059;-82
2021/09/23 04:51:18;;;;;;;23.40;10.52;;;;;;;11.10;100.00;101549.75;6280294;28;20045;-82
2021/09/23 04:54:20;;;;;;;23.98;10.77;;;;;;;11.05;100.00;101542.06;6290841;28;20041;-76
2021/09/23 04:57:22;;;;;;;22.35;10.48;;;;;;;11.07;100.00;101542.81;6286876;28;20059;-83
2021/09/23 05:00:23;;;;;;;21.60;10.52;;;;;;;11.05;100.00;101547.31;6278195;28;20045;-82
2021/09/23 05:03:24;;;;;;;22.63;10.50;;;;;;;11.07;100.00;101552.50;6286168;28;20044;-79
2021/09/23 05:06:26;;;;;;;24.25;9.82;;;;;;;11.12;100.00;101545.25;6285871;28;20041;-82
2021/09/23 05:09:30;;;;;;;25.20;10.85;;;;;;;11.08;100.00;101541.94;6281977;28;20055;-81
2021/09/23 05:12:32;;;;;;;26.70;10.23;;;;;;;11.10;100.00;101536.59;6286273;28;20045;-81
2021/09/23 05:15:33;;;;;;;27.77;11.57;;;;;;;11.10;100.00;101533.97;6286791;28;20056;-82
2021/09/23 05:18:35;;;;;;;20.42;10.43;;;;;;;11.06;100.00;101546.38;6286519;28;20045;-82
2021/09/23 05:21:36;;;;;;;24.63;10.48;;;;;;;11.05;100.00;101557.84;6286590;28;20044;-81
2021/09/23 05:24:39;;;;;;;26.00;10.75;;;;;;;11.07;100.00;101555.13;6277776;28;20495;-82
2021/09/23 05:27:41;;;;;;;20.67;9.30;;;;;;;11.08;100.00;101539.31;6282743;28;20052;-81
2021/09/23 05:30:43;;;;;;;25.15;10.18;;;;;;;11.11;100.00;101539.16;6283479;28;20405;-80
2021/09/23 05:33:44;;;;;;;18.95;10.07;;;;;;;11.12;100.00;101527.69;6278049;28;20053;-82
2021/09/23 05:36:46;;;;;;;22.88;10.45;;;;;;;11.12;100.00;101522.44;6276870;28;20041;-82
2021/09/23 05:39:48;;;;;;;21.90;11.25;;;;;;;11.10;100.00;101526.94;6283603;28;20499;-82
2021/09/23 05:42:50;;;;;;;19.90;10.05;;;;;;;11.09;100.00;101511.22;6288799;28;20048;-82
2021/09/23 05:45:51;;;;;;;19.77;9.77;;;;;;;11.10;100.00;101491.88;6289509;28;20040;-82
2021/09/23 05:48:52;;;;;;;21.63;10.40;;;;;;;11.10;100.00;101487.47;6289695;28;20048;-81
2021/09/23 05:51:55;;;;;;;21.13;10.40;;;;;;;11.12;100.00;101476.88;6282140;28;20060;-81
2021/09/23 05:54:58;;;;;;;23.92;11.13;;;;;;;11.10;100.00;101484.84;6297652;28;20055;-82
2021/09/23 05:57:59;;;;;;;29.70;13.13;;;;;;;11.10;100.00;101479.56;6292537;28;20049;-82
2021/09/23 06:01:01;;;;;;;23.95;10.00;;;;;;;11.14;100.00;101481.16;6283654;28;20053;-81
2021/09/23 06:04:02;;;;;;;18.80;9.55;;;;;;;11.23;100.00;101471.16;6274048;28;20045;-82
2021/09/23 06:07:04;;;;;;;28.77;11.85;;;;;;;11.27;100.00;101467.47;6280884;28;20045;-82
2021/09/23 06:10:09;;;;;;;20.45;9.63;;;;;;;11.29;100.00;101465.59;6277886;28;20141;-82
2021/09/23 06:13:10;;;;;;;27.90;11.15;;;;;;;11.28;100.00;101485.81;6277705;28;20041;-83
2021/09/23 06:16:12;;;;;;;25.77;11.20;;;;;;;11.32;100.00;101474.22;6286216;28;20060;-82
2021/09/23 06:19:13;;;;;;;25.17;9.75;;;;;;;11.39;100.00;101486.16;6274318;28;20435;-83
2021/09/23 06:22:14;;;;;;;34.75;11.93;;;;;;;11.43;100.00;101481.63;6291644;28;20052;-82
2021/09/23 06:25:18;;;;;;;27.08;10.45;;;;;;;11.50;100.00;101476.97;6279440;28;20064;-82
2021/09/23 06:28:19;;;;;;;23.50;10.00;;;;;;;11.53;100.00;101482.06;6273311;28;20471;-82
2021/09/23 06:31:20;;;;;;;26.73;11.07;;;;;;;11.57;100.00;101470.47;6273079;28;20060;-81
2021/09/23 06:34:22;;;;;;;31.67;11.48;;;;;;;11.60;100.00;101458.03;6270662;28;20049;-80
2021/09/23 06:37:23;;;;;;;27.88;11.52;;;;;;;11.62;100.00;101445.63;6287784;28;20052;-82
2021/09/23 06:40:26;;;;;;;25.83;10.27;;;;;;;11.66;100.00;101428.78;6296726;28;20041;-81
2021/09/23 06:43:28;;;;;;;21.45;10.00;;;;;;;11.74;100.00;101424.94;6287804;28;20045;-81
2021/09/23 06:46:30;;;;;;;25.27;10.00;;;;;;;11.81;100.00;101408.78;6336737;22;20040;-82
2021/09/23 06:49:31;;;;;;;32.20;11.88;;;;;;;11.89;100.00;101411.06;6327463;28;20056;-82
2021/09/23 06:52:32;;;;;;;28.25;10.93;;;;;;;11.94;100.00;101422.22;6325721;28;20062;-81
2021/09/23 06:55:35;;;;;;;22.27;10.32;;;;;;;12.03;100.00;101413.88;6325750;28;20051;-81
2021/09/23 06:58:36;;;;;;;23.65;9.68;;;;;;;12.08;100.00;101408.38;6326617;28;20048;-81
2021/09/23 07:01:38;;;;;;;22.42;10.70;;;;;;;12.15;100.00;101405.38;6326259;28;20453;-82
2021/09/23 07:04:39;;;;;;;20.88;9.20;;;;;;;12.22;100.00;101387.50;6324894;28;20116;-82
2021/09/23 07:07:41;;;;;;;25.75;10.07;;;;;;;12.26;100.00;101380.25;6326167;28;20048;-82
2021/09/23 07:10:43;;;;;;;16.33;8.40;;;;;;;12.38;100.00;101380.50;6326271;28;20040;-81
2021/09/23 07:13:45;;;;;;;23.15;10.52;;;;;;;12.35;100.00;101391.22;6326470;28;20052;-81
2021/09/23 07:16:46;;;;;;;28.27;10.35;;;;;;;12.40;100.00;101405.03;6326454;28;20111;-80
2021/09/23 07:19:48;;;;;;;30.25;11.52;;;;;;;12.41;100.00;101390.91;6325891;28;20075;-81
2021/09/23 07:22:49;;;;;;;21.63;9.07;;;;;;;12.43;100.00;101380.28;6326311;28;20417;-81
2021/09/23 07:25:53;;;;;;;22.13;9.13;;;;;;;12.46;100.00;101380.13;6325840;28;20051;-81
2021/09/23 07:28:54;;;;;;;23.48;9.88;;;;;;;12.51;100.00;101386.00;6326132;28;20044;-82
2021/09/23 07:31:56;;;;;;;20.45;8.80;;;;;;;12.51;100.00;101380.75;6325834;28;20418;-80
2021/09/23 07:34:57;;;;;;;23.80;9.35;;;;;;;12.55;100.00;101373.53;6325291;28;20044;-81
2021/09/23 07:37:59;;;;;;;22.00;10.25;;;;;;;12.64;100.00;101357.25;6327028;28;20520;-79
2021/09/23 07:41:02;;;;;;;23.58;11.27;;;;;;;12.72;100.00;101344.50;6325422;28;20499;-80
2021/09/23 07:44:04;;;;;;;20.08;9.60;;;;;;;12.82;100.00;101345.72;6318907;28;20059;-81
2021/09/23 07:47:05;;;;;;;22.00;8.68;;;;;;;13.07;100.00;101334.69;6341827;28;20118;-81
2021/09/23 07:50:08;;;;;;;16.45;8.52;;;;;;;13.14;100.00;101343.13;6329598;27;20051;-81
2021/09/23 07:53:09;;;;;;;20.50;8.40;;;;;;;13.26;100.00;101341.63;6324755;28;20043;-81
2021/09/23 07:56:12;;;;;;;18.08;7.88;;;;;;;13.35;99.14;101335.84;6324126;28;20061;-81
2021/09/23 07:59:13;;;;;;;18.48;8.98;;;;;;;13.42;99.38;101331.94;6325430;28;20078;-81
2021/09/23 08:02:15;;;;;;;16.42;7.47;;;;;;;13.54;96.72;101327.78;6324929;28;20052;-78
2021/09/23 08:05:16;;;;;;;17.35;7.90;;;;;;;13.61;96.68;101310.63;6324619;28;20055;-81
2021/09/23 08:08:17;;;;;;;18.38;7.95;;;;;;;13.62;97.77;101301.75;6324846;28;20054;-81
2021/09/23 08:11:20;;;;;;;15.05;7.90;;;;;;;13.64;97.32;101299.88;6325100;28;20055;-81
2021/09/23 08:14:21;;;;;;;20.27;9.43;;;;;;;13.70;97.85;101295.09;6324756;28;20052;-82
2021/09/23 08:17:24;;;;;;;19.60;7.90;;;;;;;13.78;96.53;101313.16;6324893;28;20051;-81
2021/09/23 08:20:27;;;;;;;17.98;8.07;;;;;;;13.89;97.09;101312.53;6324514;28;20430;-80
2021/09/23 08:23:30;;;;;;;14.95;7.55;;;;;;;13.96;96.29;101298.88;6322669;28;20044;-80
2021/09/23 08:26:33;;;;;;;17.98;7.82;;;;;;;14.07;96.18;101313.25;6324275;28;20075;-80
2021/09/23 08:29:34;;;;;;;14.93;7.78;;;;;;;14.17;94.61;101301.16;6299127;28;20044;-80
2021/09/23 08:32:36;;;;;;;17.50;8.27;;;;;;;14.22;95.18;101299.13;6314892;28;20044;-80
2021/09/23 08:35:38;;;;;;;18.13;8.05;;;;;;;14.23;95.06;101302.63;6323198;28;20082;-80
2021/09/23 08:38:39;;;;;;;14.93;7.90;;;;;;;14.30;94.00;101301.28;6320509;28;20487;-78
2021/09/23 08:41:42;;;;;;;16.48;7.90;;;;;;;14.35;94.88;101308.03;6321371;28;20048;-80
2021/09/23 08:44:43;;;;;;;15.73;7.65;;;;;;;14.45;94.93;101297.75;6320019;28;20044;-80
2021/09/23 08:47:46;;;;;;;16.27;8.10;;;;;;;14.43;95.69;101287.25;6321352;28;20040;-80
2021/09/23 08:50:48;;;;;;;18.67;8.18;;;;;;;14.49;94.25;101299.28;6321976;28;20054;-79
2021/09/23 08:53:49;;;;;;;15.07;7.10;;;;;;;14.55;95.45;101280.41;6309680;28;20047;-79
2021/09/23 08:56:52;;;;;;;16.73;7.57;;;;;;;14.63;94.48;101286.06;6308979;28;20047;-77
2021/09/23 08:59:53;;;;;;;20.50;7.95;;;;;;;14.71;93.84;101265.25;6322152;28;20504;-77
2021/09/23 09:03:06;;;;;;;16.27;8.43;;;;;;;14.81;94.38;101254.13;6322644;28;20051;-78
2021/09/23 09:06:11;;;;;;;17.88;7.97;;;;;;;14.83;94.59;101253.06;6321980;28;20051;-77
2021/09/23 09:09:18;;;;;;;15.07;6.85;;;;;;;14.90;93.54;101240.31;6322550;28;20088;-77
2021/09/23 09:12:21;;;;;;;18.10;8.18;;;;;;;14.96;94.07;101238.13;6322165;28;20052;-77
2021/09/23 09:15:29;;;;;;;15.23;7.22;;;;;;;15.01;94.52;101244.91;6322162;28;20052;-77
2021/09/23 09:18:31;;;;;;;15.20;7.32;;;;;;;15.08;93.83;101247.09;6322031;28;20426;-76
2021/09/23 09:21:32;;;;;;;13.57;6.68;;;;;;;15.18;94.12;101229.66;6321966;28;20052;-77
2021/09/23 09:24:37;;;;;;;12.57;5.93;;;;;;;15.30;93.99;101229.78;6321482;28;20048;-77
2021/09/23 09:27:41;;;;;;;16.23;6.82;;;;;;;15.42;94.39;101226.34;6322407;28;20055;-78
2021/09/23 09:30:43;;;;;;;13.07;6.75;;;;;;;15.54;93.08;101230.00;6321635;28;20418;-76
2021/09/23 09:33:47;;;;;;;12.60;6.13;;;;;;;15.59;94.59;101231.38;6321370;28;20048;-76
2021/09/23 09:36:50;;;;;;;14.82;6.22;;;;;;;15.68;92.08;101222.84;6321598;28;20044;-76
2021/09/23 09:39:56;;;;;;;12.93;6.53;;;;;;;15.79;93.08;101229.22;6321463;28;20081;-77
2021/09/23 09:43:01;;;;;;;13.88;6.75;;;;;;;15.92;92.40;101227.44;6321932;28;20495;-78
2021/09/23 09:46:03;;;;;;;11.38;6.35;;;;;;;16.01;92.38;101225.97;6321074;28;20048;-77
2021/09/23 09:49:04;;;;;;;13.73;6.57;;;;;;;16.06;91.50;101222.03;6321659;28;20059;-79
2021/09/23 09:52:09;;;;;;;12.80;6.25;;;;;;;16.07;91.92;101233.47;6326912;28;20048;-77
2021/09/23 09:55:11;;;;;;;16.88;6.90;;;;;;;16.07;91.57;101217.56;6322505;28;20048;-78
2021/09/23 09:58:15;;;;;;;14.95;7.72;;;;;;;16.18;90.38;101229.16;6322305;28;20052;-80
2021/09/23 10:01:16;;;;;;;14.77;6.57;;;;;;;16.09;90.59;101215.69;6322820;28;20189;-80
2021/09/23 10:04:21;;;;;;;12.30;6.22;;;;;;;16.14;91.14;101224.16;6322267;28;20056;-79
2021/09/23 10:07:22;;;;;;;13.60;6.28;;;;;;;16.19;91.26;101220.22;6322571;28;20048;-78
2021/09/23 10:10:27;;;;;;;12.25;6.68;;;;;;;16.21;90.86;101230.72;6322464;28;20419;-80
2021/09/23 10:13:30;;;;;;;11.52;5.82;;;;;;;16.14;91.43;101211.75;6322581;28;20074;-81
2021/09/23 10:16:32;;;;;;;10.95;5.40;;;;;;;16.19;89.44;101204.31;6322427;28;20040;-79
2021/09/23 10:19:35;;;;;;;10.90;6.10;;;;;;;16.25;89.45;101218.94;6322159;28;20632;-80
2021/09/23 10:22:36;;;;;;;13.88;6.65;;;;;;;16.31;89.82;101218.53;6322416;28;20048;-79
2021/09/23 10:25:38;;;;;;;14.38;6.70;;;;;;;16.26;89.57;101207.41;6321632;28;20056;-79
2021/09/23 10:28:45;;;;;;;12.45;5.53;;;;;;;16.18;90.25;101217.69;6321730;28;20051;-79
2021/09/23 10:31:46;;;;;;;14.82;6.45;;;;;;;16.16;91.93;101209.81;6322036;28;20059;-80
2021/09/23 10:34:50;;;;;;;10.95;6.40;;;;;;;16.20;90.48;101213.13;6321632;28;20048;-80
2021/09/23 10:37:53;;;;;;;13.80;6.70;;;;;;;16.31;90.57;101205.28;6322112;28;20059;-80
2021/09/23 10:40:56;;;;;;;12.52;6.90;;;;;;;16.28;89.92;101205.50;6321893;28;20044;-81
2021/09/23 10:44:00;;;;;;;14.77;6.30;;;;;;;16.41;89.43;101195.72;6321489;28;20063;-80
2021/09/23 10:47:02;;;;;;;14.45;6.53;;;;;;;16.34;91.19;101191.78;6325239;28;20048;-80
2021/09/23 10:50:06;;;;;;;12.35;6.55;;;;;;;16.47;88.95;101192.63;6326318;28;20059;-79
2021/09/23 10:53:09;;;;;;;13.27;5.85;;;;;;;16.63;87.84;101191.53;6326755;28;20059;-80
2021/09/23 10:56:11;;;;;;;9.27;4.93;;;;;;;16.71;86.02;101194.47;6326388;28;20044;-80
2021/09/23 10:59:15;;;;;;;12.15;5.53;;;;;;;16.81;86.15;101194.72;6326466;28;20055;-80
2021/09/23 11:02:22;;;;;;;11.43;5.00;;;;;;;16.82;85.61;101191.09;6327166;28;20059;-79
2021/09/23 11:05:24;;;;;;;8.95;4.47;;;;;;;16.77;86.14;101188.78;6325910;28;20435;-79
2021/09/23 11:08:29;;;;;;;10.32;5.68;;;;;;;16.84;86.10;101191.81;6326199;28;20051;-80
2021/09/23 11:11:31;;;;;;;9.63;4.88;;;;;;;16.74;85.82;101186.34;6326303;28;20055;-80
2021/09/23 11:14:34;;;;;;;9.32;5.30;;;;;;;16.82;86.12;101178.66;6325879;28;20048;-79
2021/09/23 11:17:36;;;;;;;12.20;6.07;;;;;;;16.94;84.31;101172.47;6326374;28;20052;-79
2021/09/23 11:20:43;;;;;;;9.45;5.65;;;;;;;16.92;84.55;101165.56;6326164;28;20421;-79
2021/09/23 11:23:45;;;;;;;10.55;5.25;;;;;;;16.87;85.30;101141.16;6325642;28;20130;-80
2021/09/23 11:26:47;;;;;;;12.15;5.93;;;;;;;16.89;84.86;101139.22;6326431;28;20538;-82
2021/09/23 11:29:50;;;;;;;11.40;5.97;;;;;;;16.93;85.49;101130.94;6326395;28;20776;-80
2021/09/23 11:32:54;;;;;;;8.07;4.95;;;;;;;16.84;86.36;101113.03;6336241;28;20059;-79
2021/09/23 11:35:56;;;;;;;12.20;5.90;;;;;;;16.80;85.79;101121.31;6340937;28;20054;-78
2021/09/23 11:38:57;;;;;;;8.15;5.10;;;;;;;16.92;83.20;101102.69;6336979;28;20055;-78
2021/09/23 11:42:10;;;;;;;8.07;4.43;;;;;;;16.92;83.60;101100.03;6327511;28;20048;-77
2021/09/23 11:45:16;;;;;;;7.78;4.88;;;;;;;16.89;82.31;101102.06;6337857;28;20052;-78
2021/09/23 11:48:23;;;;;;;11.23;4.88;;;;;;;16.85;82.12;101106.78;6339082;28;20073;-79
2021/09/23 11:51:29;;;;;;;6.80;4.30;;;;;;;16.83;82.12;101107.84;6325531;28;20048;-78
2021/09/23 11:54:31;;;;;;;9.60;4.88;;;;;;;16.87;83.50;101110.16;6323607;28;20055;-80
2021/09/23 11:57:32;;;;;;;7.70;4.20;;;;;;;16.77;84.16;101116.25;6305193;28;20041;-78
2021/09/23 12:00:40;;;;;;;10.23;4.93;;;;;;;16.69;83.32;101106.16;6322559;28;20039;-78
2021/09/23 12:03:45;;;;;;;12.00;4.30;;;;;;;16.71;84.41;101101.59;6313344;28;20057;-77
2021/09/23 12:06:59;;;;;;;7.35;3.75;;;;;;;16.75;85.62;101103.09;6321474;28;20051;-77
2021/09/23 12:10:03;;;;;;;6.25;4.35;;;;;;;16.80;84.49;101100.09;6316403;28;20040;-78
2021/09/23 12:13:04;;;;;;;8.23;4.25;;;;;;;16.77;85.19;101079.94;6324291;28;20064;-77
2021/09/23 12:16:11;;;;;;;9.95;4.43;;;;;;;16.84;84.43;101082.97;6323432;28;20072;-78
2021/09/23 12:19:16;;;;;;;7.88;4.35;;;;;;;16.89;84.72;101080.81;6324103;28;20055;-79
2021/09/23 12:22:27;;;;;;;7.93;4.55;;;;;;;16.82;85.08;101076.94;6325013;28;20082;-78
2021/09/23 12:25:28;;;;;;;11.52;5.82;;;;;;;16.83;84.88;101070.69;6323533;28;20054;-77
2021/09/23 12:28:30;;;;;;;6.95;4.28;;;;;;;16.81;85.78;101065.50;6322224;28;20051;-77
2021/09/23 12:31:40;;;;;;;6.80;4.00;;;;;;;16.82;86.34;101084.91;6338158;28;20044;-78
2021/09/23 12:34:44;;;;;;;8.70;4.85;;;;;;;16.76;87.26;101077.38;6329315;28;20131;-77
2021/09/23 12:37:47;;;;;;;8.63;4.80;;;;;;;16.72;87.07;101105.97;6331672;28;20055;-78
2021/09/23 12:40:49;;;;;;;12.68;5.25;;;;;;;16.70;87.02;101086.63;6348833;28;20501;-78
2021/09/23 12:43:51;;;;;;;9.05;5.28;;;;;;;16.59;87.97;101076.81;6349787;28;20487;-78
2021/09/23 12:47:04;;;;;;;10.15;5.25;;;;;;;16.66;87.92;101075.38;6337117;28;20407;-78
2021/09/23 12:50:07;;;;;;;8.68;4.93;;;;;;;16.64;88.63;101065.84;6321910;28;20135;-77
2021/09/23 12:53:17;;;;;;;9.35;5.50;;;;;;;16.59;88.49;101060.88;6322853;28;20048;-75
2021/09/23 12:56:25;;;;;;;9.45;5.25;;;;;;;16.56;89.26;101065.56;6320210;28;20052;-77
2021/09/23 12:59:30;;;;;;;7.63;4.90;;;;;;;16.57;90.32;101046.03;6323043;28;20040;-76
2021/09/23 13:02:33;;;;;;;11.25;5.50;;;;;;;16.70;88.79;101044.16;6322950;28;20735;-76
2021/09/23 13:05:35;;;;;;;8.68;5.25;;;;;;;16.61;89.54;101044.84;6323342;28;20052;-77
2021/09/23 13:08:42;;;;;;;8.75;4.88;;;;;;;16.65;90.12;101043.66;6323461;28;20059;-76
2021/09/23 13:11:43;;;;;;;11.60;5.57;;;;;;;16.68;89.92;101030.16;6321752;28;20182;-75
2021/09/23 13:14:45;;;;;;;8.32;4.90;;;;;;;16.75;89.89;101028.75;6321201;28;20055;-74
2021/09/23 13:18:02;;;;;;;9.52;5.20;;;;;;;16.76;90.20;101042.88;6320379;28;20084;-74
2021/09/23 13:21:06;;;;;;;11.02;5.38;;;;;;;16.76;89.44;101041.09;6324320;28;20423;-79
2021/09/23 13:24:07;;;;;;;11.55;5.10;;;;;;;16.79;90.32;101043.50;6326459;28;20105;-77
2021/09/23 13:27:10;;;;;;;10.05;5.25;;;;;;;16.77;90.22;101036.63;6325422;28;20040;-78
2021/09/23 13:30:14;;;;;;;12.95;5.10;;;;;;;16.76;89.42;101027.84;6321810;28;20534;-78
2021/09/23 13:33:17;;;;;;;6.93;4.55;;;;;;;16.78;90.46;101028.56;6323014;28;20169;-74
2021/09/23 13:36:19;;;;;;;9.68;5.60;;;;;;;16.80;90.16;101017.81;6323177;28;20499;-75
2021/09/23 13:39:20;;;;;;;15.23;5.13;;;;;;;16.73;91.43;101023.59;6320551;28;20052;-77
2021/09/23 13:42:22;;;;;;;8.90;5.22;;;;;;;16.73;90.53;101031.53;6320639;28;20479;-80
2021/09/23 13:45:25;;;;;;;8.02;5.60;;;;;;;16.69;91.25;101030.03;6324431;28;20055;-79
2021/09/23 13:48:31;;;;;;;13.60;5.63;;;;;;;16.76;90.86;101032.25;6319783;28;20415;-77
2021/09/23 13:51:32;;;;;;;9.60;5.85;;;;;;;16.67;91.23;101033.78;6321592;28;20514;-78
2021/09/23 13:54:34;;;;;;;9.48;5.10;;;;;;;16.67;91.12;101025.84;6317656;28;20044;-78